sensor_id;sensor_type;location;lat;lon;timestamp;pressure;altitude;pressure_sealevel;temperature;humidity
14689;BME280;7432;48.728;9.154;2023-05-23T00:00:54;145987.13;;;17.12;90.17
14689;BME280;7432;48.728;9.154;2023-05-23T00:03:22;145987.13;;;17.12;90.98
14689;BME280;7432;48.728;9.154;2023-05-23T00:05:49;145967.69;;;17.04;91.85
14689;BME280;7432;48.728;9.154;2023-05-23T00:08:16;145993.22;;;17.15;91.69
14689;BME280;7432;48.728;9.154;2023-05-23T00:10:43;146004.16;;;17.19;92.28
14689;BME280;7432;48.728;9.154;2023-05-23T00:13:11;145996.84;;;17.16;92.33
14689;BME280;7432;48.728;9.154;2023-05-23T00:15:38;145994.44;;;17.15;93.34
14689;BME280;7432;48.728;9.154;2023-05-23T00:18:06;145993.22;;;17.15;93.72
14689;BME280;7432;48.728;9.154;2023-05-23T00:20:35;145974.97;;;17.07;94.48
14689;BME280;7432;48.728;9.154;2023-05-23T00:23:03;145970.09;;;17.05;95.08
14689;BME280;7432;48.728;9.154;2023-05-23T00:25:29;145982.25;;;17.10;95.30
14689;BME280;7432;48.728;9.154;2023-05-23T00:27:58;145987.13;;;17.12;95.65
14689;BME280;7432;48.728;9.154;2023-05-23T00:30:26;145990.75;;;17.14;95.96
14689;BME280;7432;48.728;9.154;2023-05-23T00:32:52;145977.38;;;17.08;96.48
14689;BME280;7432;48.728;9.154;2023-05-23T00:35:19;145981.06;;;17.10;96.57
14689;BME280;7432;48.728;9.154;2023-05-23T00:37:46;145973.75;;;17.07;96.86
14689;BME280;7432;48.728;9.154;2023-05-23T00:40:14;145978.63;;;17.09;96.93
14689;BME280;7432;48.728;9.154;2023-05-23T00:42:40;145957.94;;;17.00;97.38
14689;BME280;7432;48.728;9.154;2023-05-23T00:45:07;145968.84;;;17.05;97.41
14689;BME280;7432;48.728;9.154;2023-05-23T00:47:35;145961.59;;;17.02;97.58
14689;BME280;7432;48.728;9.154;2023-05-23T00:50:02;145967.69;;;17.04;97.57
14689;BME280;7432;48.728;9.154;2023-05-23T00:52:29;145957.94;;;17.00;97.97
14689;BME280;7432;48.728;9.154;2023-05-23T00:54:55;145961.59;;;17.02;97.92
14689;BME280;7432;48.728;9.154;2023-05-23T00:57:22;145976.16;;;17.08;97.61
14689;BME280;7432;48.728;9.154;2023-05-23T00:59:48;145998.06;;;17.17;97.38
14689;BME280;7432;48.728;9.154;2023-05-23T01:02:15;145992.00;;;17.14;97.27
14689;BME280;7432;48.728;9.154;2023-05-23T01:04:43;145987.13;;;17.12;97.40
14689;BME280;7432;48.728;9.154;2023-05-23T01:07:09;145982.25;;;17.10;97.47
14689;BME280;7432;48.728;9.154;2023-05-23T01:09:36;145985.91;;;17.12;97.40
14689;BME280;7432;48.728;9.154;2023-05-23T01:12:13;145968.84;;;17.05;97.89
14689;BME280;7432;48.728;9.154;2023-05-23T01:14:46;145974.97;;;17.07;98.08
14689;BME280;7432;48.728;9.154;2023-05-23T01:17:16;145981.06;;;17.10;98.09
14689;BME280;7432;48.728;9.154;2023-05-23T01:19:56;145974.97;;;17.07;97.92
14689;BME280;7432;48.728;9.154;2023-05-23T01:22:35;145993.22;;;17.15;97.43
14689;BME280;7432;48.728;9.154;2023-05-23T01:25:10;146016.31;;;17.25;96.78
14689;BME280;7432;48.728;9.154;2023-05-23T01:27:51;146012.69;;;17.23;96.23
14689;BME280;7432;48.728;9.154;2023-05-23T01:30:20;146002.91;;;17.19;96.63
14689;BME280;7432;48.728;9.154;2023-05-23T01:32:50;145983.47;;;17.11;96.81
14689;BME280;7432;48.728;9.154;2023-05-23T01:35:22;146004.16;;;17.19;96.32
14689;BME280;7432;48.728;9.154;2023-05-23T01:37:49;145995.63;;;17.16;96.34
14689;BME280;7432;48.728;9.154;2023-05-23T01:40:15;145990.75;;;17.14;96.55
14689;BME280;7432;48.728;9.154;2023-05-23T01:42:42;145987.13;;;17.12;96.72
14689;BME280;7432;48.728;9.154;2023-05-23T01:45:11;145999.28;;;17.17;96.45
14689;BME280;7432;48.728;9.154;2023-05-23T01:47:39;145983.47;;;17.11;96.58
14689;BME280;7432;48.728;9.154;2023-05-23T01:50:07;145970.09;;;17.05;96.63
14689;BME280;7432;48.728;9.154;2023-05-23T01:52:35;145956.69;;;17.00;96.74
14689;BME280;7432;48.728;9.154;2023-05-23T01:55:04;145954.31;;;16.99;96.91
14689;BME280;7432;48.728;9.154;2023-05-23T01:57:34;145955.47;;;16.99;97.15
14689;BME280;7432;48.728;9.154;2023-05-23T02:00:01;145949.41;;;16.97;96.73
14689;BME280;7432;48.728;9.154;2023-05-23T02:02:28;145934.84;;;16.91;97.13
14689;BME280;7432;48.728;9.154;2023-05-23T02:04:56;145906.88;;;16.79;97.64
14689;BME280;7432;48.728;9.154;2023-05-23T02:07:23;145874.03;;;16.66;97.82
14689;BME280;7432;48.728;9.154;2023-05-23T02:09:49;145860.66;;;16.60;98.38
14689;BME280;7432;48.728;9.154;2023-05-23T02:12:15;145858.22;;;16.59;98.58
14689;BME280;7432;48.728;9.154;2023-05-23T02:14:42;145858.22;;;16.59;98.78
14689;BME280;7432;48.728;9.154;2023-05-23T02:17:08;145848.50;;;16.55;98.24
14689;BME280;7432;48.728;9.154;2023-05-23T02:19:36;145829.03;;;16.47;99.24
14689;BME280;7432;48.728;9.154;2023-05-23T02:22:02;145822.94;;;16.44;99.08
14689;BME280;7432;48.728;9.154;2023-05-23T02:24:29;145819.28;;;16.43;99.46
14689;BME280;7432;48.728;9.154;2023-05-23T02:26:55;145804.66;;;16.37;99.84
14689;BME280;7432;48.728;9.154;2023-05-23T02:29:21;145798.59;;;16.34;99.65
14689;BME280;7432;48.728;9.154;2023-05-23T02:31:48;145792.53;;;16.32;99.72
14689;BME280;7432;48.728;9.154;2023-05-23T02:34:15;145782.81;;;16.28;100.00
14689;BME280;7432;48.728;9.154;2023-05-23T02:36:42;145768.22;;;16.22;100.00
14689;BME280;7432;48.728;9.154;2023-05-23T02:39:09;145764.56;;;16.20;100.00
14689;BME280;7432;48.728;9.154;2023-05-23T02:41:35;145760.94;;;16.19;100.00
14689;BME280;7432;48.728;9.154;2023-05-23T02:44:02;145764.56;;;16.20;100.00
14689;BME280;7432;48.728;9.154;2023-05-23T02:46:28;145765.78;;;16.21;100.00
14689;BME280;7432;48.728;9.154;2023-05-23T02:48:54;145773.09;;;16.24;100.00
14689;BME280;7432;48.728;9.154;2023-05-23T02:51:21;145777.94;;;16.26;100.00
14689;BME280;7432;48.728;9.154;2023-05-23T02:53:48;145787.69;;;16.30;100.00
14689;BME280;7432;48.728;9.154;2023-05-23T02:56:15;145791.31;;;16.31;100.00
14689;BME280;7432;48.728;9.154;2023-05-23T02:58:41;145802.28;;;16.36;100.00
14689;BME280;7432;48.728;9.154;2023-05-23T03:01:07;145815.66;;;16.41;100.00
14689;BME280;7432;48.728;9.154;2023-05-23T03:03:34;145842.38;;;16.52;99.94
14689;BME280;7432;48.728;9.154;2023-05-23T03:06:00;145843.63;;;16.53;99.71
14689;BME280;7432;48.728;9.154;2023-05-23T03:08:27;145844.84;;;16.53;99.81
14689;BME280;7432;48.728;9.154;2023-05-23T03:10:55;145853.38;;;16.57;99.63
14689;BME280;7432;48.728;9.154;2023-05-23T03:13:21;145858.22;;;16.59;99.23
14689;BME280;7432;48.728;9.154;2023-05-23T03:15:47;145842.38;;;16.52;99.02
14689;BME280;7432;48.728;9.154;2023-05-23T03:18:14;145842.38;;;16.52;99.41
14689;BME280;7432;48.728;9.154;2023-05-23T03:20:40;145846.06;;;16.54;99.52
14689;BME280;7432;48.728;9.154;2023-05-23T03:23:06;145854.59;;;16.57;99.16
14689;BME280;7432;48.728;9.154;2023-05-23T03:25:33;145853.38;;;16.57;99.02
14689;BME280;7432;48.728;9.154;2023-05-23T03:28:01;145860.66;;;16.60;99.34
14689;BME280;7432;48.728;9.154;2023-05-23T03:30:27;145877.66;;;16.67;99.09
14689;BME280;7432;48.728;9.154;2023-05-23T03:32:53;145883.75;;;16.70;98.54
14689;BME280;7432;48.728;9.154;2023-05-23T03:35:20;145898.34;;;16.76;98.19
14689;BME280;7432;48.728;9.154;2023-05-23T03:37:46;145894.72;;;16.74;98.02
14689;BME280;7432;48.728;9.154;2023-05-23T03:40:12;145903.19;;;16.78;97.89
14689;BME280;7432;48.728;9.154;2023-05-23T03:42:39;145902.00;;;16.77;97.41
14689;BME280;7432;48.728;9.154;2023-05-23T03:45:07;145900.78;;;16.77;97.55
14689;BME280;7432;48.728;9.154;2023-05-23T03:47:33;145900.78;;;16.77;97.65
14689;BME280;7432;48.728;9.154;2023-05-23T03:49:59;145892.25;;;16.73;97.43
14689;BME280;7432;48.728;9.154;2023-05-23T03:52:26;145887.41;;;16.71;97.65
14689;BME280;7432;48.728;9.154;2023-05-23T03:54:52;145888.63;;;16.72;98.04
14689;BME280;7432;48.728;9.154;2023-05-23T03:57:19;145895.94;;;16.75;97.59
14689;BME280;7432;48.728;9.154;2023-05-23T03:59:45;145886.19;;;16.71;97.54
14689;BME280;7432;48.728;9.154;2023-05-23T04:02:13;145867.97;;;16.63;97.50
14689;BME280;7432;48.728;9.154;2023-05-23T04:04:39;145866.75;;;16.63;97.66
14689;BME280;7432;48.728;9.154;2023-05-23T04:07:06;145869.19;;;16.64;98.22
14689;BME280;7432;48.728;9.154;2023-05-23T04:09:33;145888.63;;;16.72;97.78
14689;BME280;7432;48.728;9.154;2023-05-23T04:11:59;145872.81;;;16.65;97.69
14689;BME280;7432;48.728;9.154;2023-05-23T04:14:26;145903.19;;;16.78;97.14
14689;BME280;7432;48.728;9.154;2023-05-23T04:16:52;145923.88;;;16.86;97.04
14689;BME280;7432;48.728;9.154;2023-05-23T04:19:21;145940.91;;;16.93;96.58
14689;BME280;7432;48.728;9.154;2023-05-23T04:21:47;145948.22;;;16.96;96.34
14689;BME280;7432;48.728;9.154;2023-05-23T04:24:13;145955.47;;;16.99;96.07
14689;BME280;7432;48.728;9.154;2023-05-23T04:26:40;145964.00;;;17.03;95.82
14689;BME280;7432;48.728;9.154;2023-05-23T04:29:07;145968.84;;;17.05;95.46
14689;BME280;7432;48.728;9.154;2023-05-23T04:31:33;145978.63;;;17.09;95.55
14689;BME280;7432;48.728;9.154;2023-05-23T04:33:59;145987.13;;;17.12;95.23
14689;BME280;7432;48.728;9.154;2023-05-23T04:36:27;145995.63;;;17.16;95.08
14689;BME280;7432;48.728;9.154;2023-05-23T04:38:54;145995.63;;;17.16;95.01
14689;BME280;7432;48.728;9.154;2023-05-23T04:41:20;145974.97;;;17.07;95.28
14689;BME280;7432;48.728;9.154;2023-05-23T04:43:47;145977.38;;;17.08;95.09
14689;BME280;7432;48.728;9.154;2023-05-23T04:46:18;145984.69;;;17.11;94.90
14689;BME280;7432;48.728;9.154;2023-05-23T04:48:47;145994.44;;;17.15;94.82
14689;BME280;7432;48.728;9.154;2023-05-23T04:51:14;145996.84;;;17.16;94.35
14689;BME280;7432;48.728;9.154;2023-05-23T04:53:42;145977.38;;;17.08;94.31
14689;BME280;7432;48.728;9.154;2023-05-23T04:56:08;145976.16;;;17.08;94.69
14689;BME280;7432;48.728;9.154;2023-05-23T04:58:35;145960.38;;;17.01;94.69
14689;BME280;7432;48.728;9.154;2023-05-23T05:01:01;145949.41;;;16.97;95.10
14689;BME280;7432;48.728;9.154;2023-05-23T05:03:27;145954.31;;;16.99;94.99
14689;BME280;7432;48.728;9.154;2023-05-23T05:05:54;145962.78;;;17.02;94.84
14689;BME280;7432;48.728;9.154;2023-05-23T05:08:20;145956.69;;;17.00;94.79
14689;BME280;7432;48.728;9.154;2023-05-23T05:10:48;145960.38;;;17.01;95.14
14689;BME280;7432;48.728;9.154;2023-05-23T05:13:15;145978.63;;;17.09;94.44
14689;BME280;7432;48.728;9.154;2023-05-23T05:15:41;145994.44;;;17.15;93.78
14689;BME280;7432;48.728;9.154;2023-05-23T05:18:08;146030.91;;;17.31;92.98
14689;BME280;7432;48.728;9.154;2023-05-23T05:20:34;146069.84;;;17.47;92.98
14689;BME280;7432;48.728;9.154;2023-05-23T05:23:00;146097.88;;;17.58;92.15
14689;BME280;7432;48.728;9.154;2023-05-23T05:25:27;146119.78;;;17.67;91.25
14689;BME280;7432;48.728;9.154;2023-05-23T05:27:59;146100.31;;;17.59;91.06
14689;BME280;7432;48.728;9.154;2023-05-23T05:30:27;146077.13;;;17.50;91.51
14689;BME280;7432;48.728;9.154;2023-05-23T05:32:54;146058.91;;;17.42;91.81
14689;BME280;7432;48.728;9.154;2023-05-23T05:35:22;146060.13;;;17.43;91.83
14689;BME280;7432;48.728;9.154;2023-05-23T05:37:48;146061.31;;;17.43;91.78
14689;BME280;7432;48.728;9.154;2023-05-23T05:40:14;146060.13;;;17.43;91.79
14689;BME280;7432;48.728;9.154;2023-05-23T05:42:41;146057.69;;;17.42;91.79
14689;BME280;7432;48.728;9.154;2023-05-23T05:45:09;146054.03;;;17.40;92.01
14689;BME280;7432;48.728;9.154;2023-05-23T05:47:36;146067.44;;;17.46;91.44
14689;BME280;7432;48.728;9.154;2023-05-23T05:50:03;146066.22;;;17.45;91.32
14689;BME280;7432;48.728;9.154;2023-05-23T05:52:30;146094.19;;;17.57;91.09
14689;BME280;7432;48.728;9.154;2023-05-23T05:54:58;146114.88;;;17.65;90.87
14689;BME280;7432;48.728;9.154;2023-05-23T05:57:25;146136.81;;;17.74;90.14
14689;BME280;7432;48.728;9.154;2023-05-23T05:59:51;146185.50;;;17.95;89.41
14689;BME280;7432;48.728;9.154;2023-05-23T06:02:19;146230.53;;;18.13;88.38
14689;BME280;7432;48.728;9.154;2023-05-23T06:04:45;146281.63;;;18.34;87.42
14689;BME280;7432;48.728;9.154;2023-05-23T06:07:11;146312.06;;;18.47;86.77
14689;BME280;7432;48.728;9.154;2023-05-23T06:09:38;146338.88;;;18.58;86.05
14689;BME280;7432;48.728;9.154;2023-05-23T06:12:05;146353.50;;;18.64;85.48
14689;BME280;7432;48.728;9.154;2023-05-23T06:14:31;146338.88;;;18.58;84.51
14689;BME280;7432;48.728;9.154;2023-05-23T06:16:58;146349.88;;;18.63;85.19
14689;BME280;7432;48.728;9.154;2023-05-23T06:19:25;146380.31;;;18.75;85.11
14689;BME280;7432;48.728;9.154;2023-05-23T06:21:52;146381.53;;;18.76;84.76
14689;BME280;7432;48.728;9.154;2023-05-23T06:24:18;146371.75;;;18.72;84.15
14689;BME280;7432;48.728;9.154;2023-05-23T06:26:44;146409.53;;;18.87;83.59
14689;BME280;7432;48.728;9.154;2023-05-23T06:29:11;146474.09;;;19.14;82.92
14689;BME280;7432;48.728;9.154;2023-05-23T06:31:38;146480.19;;;19.17;81.96
14689;BME280;7432;48.728;9.154;2023-05-23T06:34:04;146469.22;;;19.12;81.31
14689;BME280;7432;48.728;9.154;2023-05-23T06:36:32;146474.09;;;19.14;81.05
14689;BME280;7432;48.728;9.154;2023-05-23T06:38:58;146405.88;;;18.86;82.04
14689;BME280;7432;48.728;9.154;2023-05-23T06:41:25;146403.47;;;18.85;82.16
14689;BME280;7432;48.728;9.154;2023-05-23T06:43:51;146368.13;;;18.70;82.54
14689;BME280;7432;48.728;9.154;2023-05-23T06:46:18;146397.34;;;18.82;82.44
14689;BME280;7432;48.728;9.154;2023-05-23T06:48:44;146410.72;;;18.88;82.43
14689;BME280;7432;48.728;9.154;2023-05-23T06:51:10;146392.47;;;18.80;82.58
14689;BME280;7432;48.728;9.154;2023-05-23T06:53:38;146391.25;;;18.80;82.95
14689;BME280;7432;48.728;9.154;2023-05-23T06:56:04;146385.16;;;18.77;82.86
14689;BME280;7432;48.728;9.154;2023-05-23T06:58:31;146351.09;;;18.63;83.32
14689;BME280;7432;48.728;9.154;2023-05-23T07:00:57;146326.72;;;18.53;83.53
14689;BME280;7432;48.728;9.154;2023-05-23T07:03:23;146302.34;;;18.43;83.49
14689;BME280;7432;48.728;9.154;2023-05-23T07:05:50;146208.59;;;18.04;84.25
14689;BME280;7432;48.728;9.154;2023-05-23T07:08:16;146222.00;;;18.10;84.18
14689;BME280;7432;48.728;9.154;2023-05-23T07:10:44;146151.41;;;17.81;85.12
14689;BME280;7432;48.728;9.154;2023-05-23T07:13:10;146139.25;;;17.75;86.21
14689;BME280;7432;48.728;9.154;2023-05-23T07:15:37;146142.88;;;17.77;85.95
14689;BME280;7432;48.728;9.154;2023-05-23T07:18:03;146145.34;;;17.78;85.91
14689;BME280;7432;48.728;9.154;2023-05-23T07:20:31;146113.72;;;17.65;86.08
14689;BME280;7432;48.728;9.154;2023-05-23T07:22:57;146125.88;;;17.70;85.63
14689;BME280;7432;48.728;9.154;2023-05-23T07:25:24;146105.19;;;17.61;85.22
14689;BME280;7432;48.728;9.154;2023-05-23T07:27:53;146068.59;;;17.46;85.65
14689;BME280;7432;48.728;9.154;2023-05-23T07:30:20;146062.53;;;17.44;86.10
14689;BME280;7432;48.728;9.154;2023-05-23T07:32:46;146067.44;;;17.46;86.27
14689;BME280;7432;48.728;9.154;2023-05-23T07:35:13;146073.50;;;17.48;85.60
14689;BME280;7432;48.728;9.154;2023-05-23T07:37:40;146067.44;;;17.46;85.36
14689;BME280;7432;48.728;9.154;2023-05-23T07:40:07;146058.91;;;17.42;85.59
14689;BME280;7432;48.728;9.154;2023-05-23T07:42:34;146052.81;;;17.40;85.23
14689;BME280;7432;48.728;9.154;2023-05-23T07:45:02;146029.69;;;17.30;85.91
14689;BME280;7432;48.728;9.154;2023-05-23T07:47:29;146026.06;;;17.29;86.47
14689;BME280;7432;48.728;9.154;2023-05-23T07:49:55;146015.06;;;17.24;86.50
14689;BME280;7432;48.728;9.154;2023-05-23T07:52:21;145981.06;;;17.10;86.44
14689;BME280;7432;48.728;9.154;2023-05-23T07:54:48;146006.59;;;17.21;86.47
14689;BME280;7432;48.728;9.154;2023-05-23T07:57:14;146010.22;;;17.22;85.79
14689;BME280;7432;48.728;9.154;2023-05-23T07:59:40;146052.81;;;17.40;85.48
14689;BME280;7432;48.728;9.154;2023-05-23T08:02:08;146079.59;;;17.51;84.42
14689;BME280;7432;48.728;9.154;2023-05-23T08:04:34;146077.13;;;17.50;82.91
14689;BME280;7432;48.728;9.154;2023-05-23T08:07:01;146114.88;;;17.65;82.07
14689;BME280;7432;48.728;9.154;2023-05-23T08:09:29;146138.03;;;17.75;81.35
14689;BME280;7432;48.728;9.154;2023-05-23T08:11:55;146170.88;;;17.89;80.65
14689;BME280;7432;48.728;9.154;2023-05-23T08:14:22;146128.28;;;17.71;80.71
14689;BME280;7432;48.728;9.154;2023-05-23T08:16:48;146162.34;;;17.85;80.08
14689;BME280;7432;48.728;9.154;2023-05-23T08:19:16;146079.59;;;17.51;80.91
14689;BME280;7432;48.728;9.154;2023-05-23T08:21:42;146044.28;;;17.36;81.84
14689;BME280;7432;48.728;9.154;2023-05-23T08:24:09;146030.91;;;17.31;81.60
14689;BME280;7432;48.728;9.154;2023-05-23T08:26:37;146030.91;;;17.31;81.19
14689;BME280;7432;48.728;9.154;2023-05-23T08:29:03;145970.09;;;17.05;81.77
14689;BME280;7432;48.728;9.154;2023-05-23T08:31:30;145965.22;;;17.03;82.04
14689;BME280;7432;48.728;9.154;2023-05-23T08:33:57;145927.53;;;16.88;82.45
14689;BME280;7432;48.728;9.154;2023-05-23T08:36:25;145933.63;;;16.90;82.15
14689;BME280;7432;48.728;9.154;2023-05-23T08:38:52;145926.31;;;16.87;82.77
14689;BME280;7432;48.728;9.154;2023-05-23T08:41:19;145906.88;;;16.79;83.08
14689;BME280;7432;48.728;9.154;2023-05-23T08:43:46;145909.31;;;16.80;83.19
14689;BME280;7432;48.728;9.154;2023-05-23T08:46:14;145876.44;;;16.67;83.29
14689;BME280;7432;48.728;9.154;2023-05-23T08:48:41;145891.03;;;16.73;83.51
14689;BME280;7432;48.728;9.154;2023-05-23T08:51:08;145923.88;;;16.86;83.74
14689;BME280;7432;48.728;9.154;2023-05-23T08:53:40;145942.16;;;16.94;82.85
14689;BME280;7432;48.728;9.154;2023-05-23T08:56:07;145987.13;;;17.12;81.49
14689;BME280;7432;48.728;9.154;2023-05-23T08:58:35;146037.00;;;17.33;79.77
14689;BME280;7432;48.728;9.154;2023-05-23T09:01:03;146069.84;;;17.47;79.35
14689;BME280;7432;48.728;9.154;2023-05-23T09:03:29;146112.47;;;17.64;78.40
14689;BME280;7432;48.728;9.154;2023-05-23T09:05:57;146159.91;;;17.84;78.05
14689;BME280;7432;48.728;9.154;2023-05-23T09:08:24;146197.66;;;18.00;77.02
14689;BME280;7432;48.728;9.154;2023-05-23T09:10:53;146243.91;;;18.19;75.54
14689;BME280;7432;48.728;9.154;2023-05-23T09:13:20;146270.69;;;18.30;75.13
14689;BME280;7432;48.728;9.154;2023-05-23T09:15:55;146271.91;;;18.30;74.43
14689;BME280;7432;48.728;9.154;2023-05-23T09:18:23;146280.41;;;18.34;74.69
14689;BME280;7432;48.728;9.154;2023-05-23T09:20:50;146264.63;;;18.27;73.92
14689;BME280;7432;48.728;9.154;2023-05-23T09:23:16;146219.53;;;18.09;75.05
14689;BME280;7432;48.728;9.154;2023-05-23T09:25:45;146250.00;;;18.21;74.73
14689;BME280;7432;48.728;9.154;2023-05-23T09:28:13;146256.09;;;18.24;74.58
14689;BME280;7432;48.728;9.154;2023-05-23T09:30:40;146256.09;;;18.24;74.79
14689;BME280;7432;48.728;9.154;2023-05-23T09:33:06;146215.91;;;18.07;74.54
14689;BME280;7432;48.728;9.154;2023-05-23T09:35:32;146168.44;;;17.88;74.04
14689;BME280;7432;48.728;9.154;2023-05-23T09:37:59;146180.59;;;17.93;74.10
14689;BME280;7432;48.728;9.154;2023-05-23T09:40:29;146172.09;;;17.89;74.18
14689;BME280;7432;48.728;9.154;2023-05-23T09:43:01;146240.22;;;18.17;73.17
14689;BME280;7432;48.728;9.154;2023-05-23T09:45:30;146284.09;;;18.35;72.77
14689;BME280;7432;48.728;9.154;2023-05-23T09:47:57;146285.25;;;18.36;70.96
14689;BME280;7432;48.728;9.154;2023-05-23T09:50:25;146207.38;;;18.04;71.28
14689;BME280;7432;48.728;9.154;2023-05-23T09:52:55;146190.34;;;17.97;71.64
14689;BME280;7432;48.728;9.154;2023-05-23T09:55:22;146201.28;;;18.01;70.67
14689;BME280;7432;48.728;9.154;2023-05-23T09:57:52;146197.66;;;18.00;70.33
14689;BME280;7432;48.728;9.154;2023-05-23T10:00:22;146215.91;;;18.07;70.34
14689;BME280;7432;48.728;9.154;2023-05-23T10:02:55;146231.75;;;18.14;70.41
14689;BME280;7432;48.728;9.154;2023-05-23T10:05:32;146189.13;;;17.96;70.17
14689;BME280;7432;48.728;9.154;2023-05-23T10:08:01;146173.28;;;17.90;70.33
14689;BME280;7432;48.728;9.154;2023-05-23T10:10:30;146187.91;;;17.96;70.96
14689;BME280;7432;48.728;9.154;2023-05-23T10:13:01;146141.66;;;17.76;72.28
14689;BME280;7432;48.728;9.154;2023-05-23T10:15:33;146228.06;;;18.12;71.50
14689;BME280;7432;48.728;9.154;2023-05-23T10:18:15;146263.38;;;18.27;70.55
14689;BME280;7432;48.728;9.154;2023-05-23T10:20:47;146286.50;;;18.36;70.20
14689;BME280;7432;48.728;9.154;2023-05-23T10:23:14;146295.03;;;18.40;68.70
14689;BME280;7432;48.728;9.154;2023-05-23T10:25:42;146336.47;;;18.57;68.69
14689;BME280;7432;48.728;9.154;2023-05-23T10:28:10;146418.03;;;18.91;67.79
14689;BME280;7432;48.728;9.154;2023-05-23T10:30:37;146493.56;;;19.22;65.62
14689;BME280;7432;48.728;9.154;2023-05-23T10:33:04;146528.91;;;19.37;63.78
14689;BME280;7432;48.728;9.154;2023-05-23T10:35:44;146564.25;;;19.51;63.39
14689;BME280;7432;48.728;9.154;2023-05-23T10:38:24;146597.16;;;19.65;62.96
14689;BME280;7432;48.728;9.154;2023-05-23T10:40:59;146527.69;;;19.36;63.11
14689;BME280;7432;48.728;9.154;2023-05-23T10:43:30;146492.34;;;19.22;63.80
14689;BME280;7432;48.728;9.154;2023-05-23T10:45:59;146539.91;;;19.41;64.60
14689;BME280;7432;48.728;9.154;2023-05-23T10:48:31;146578.91;;;19.58;64.12
14689;BME280;7432;48.728;9.154;2023-05-23T10:51:05;146615.44;;;19.73;64.23
14689;BME280;7432;48.728;9.154;2023-05-23T10:53:34;146567.94;;;19.53;65.04
14689;BME280;7432;48.728;9.154;2023-05-23T10:56:01;146541.13;;;19.42;65.03
14689;BME280;7432;48.728;9.154;2023-05-23T10:58:30;146550.88;;;19.46;65.02
14689;BME280;7432;48.728;9.154;2023-05-23T11:00:59;146598.41;;;19.66;65.36
14689;BME280;7432;48.728;9.154;2023-05-23T11:03:30;146600.84;;;19.67;64.38
14689;BME280;7432;48.728;9.154;2023-05-23T11:05:58;146591.06;;;19.63;64.23
14689;BME280;7432;48.728;9.154;2023-05-23T11:08:25;146637.38;;;19.82;63.33
14689;BME280;7432;48.728;9.154;2023-05-23T11:10:55;146669.06;;;19.95;63.16
14689;BME280;7432;48.728;9.154;2023-05-23T11:13:23;146732.47;;;20.21;62.32
14689;BME280;7432;48.728;9.154;2023-05-23T11:15:50;146731.25;;;20.21;62.10
14689;BME280;7432;48.728;9.154;2023-05-23T11:18:21;146752.00;;;20.29;61.62
14689;BME280;7432;48.728;9.154;2023-05-23T11:20:51;146775.16;;;20.39;60.08
14689;BME280;7432;48.728;9.154;2023-05-23T11:23:18;146732.47;;;20.21;60.48
14689;BME280;7432;48.728;9.154;2023-05-23T11:25:48;146681.25;;;20.00;60.68
14689;BME280;7432;48.728;9.154;2023-05-23T11:28:16;146761.75;;;20.33;60.76
14689;BME280;7432;48.728;9.154;2023-05-23T11:30:43;146723.91;;;20.18;59.29
14689;BME280;7432;48.728;9.154;2023-05-23T11:33:14;146747.16;;;20.27;60.09
14689;BME280;7432;48.728;9.154;2023-05-23T11:35:41;146809.31;;;20.53;59.47
14689;BME280;7432;48.728;9.154;2023-05-23T11:38:08;146933.69;;;21.04;58.05
14689;BME280;7432;48.728;9.154;2023-05-23T11:40:36;147067.94;;;21.60;57.46
14689;BME280;7432;48.728;9.154;2023-05-23T11:43:05;147127.72;;;21.84;55.99
14689;BME280;7432;48.728;9.154;2023-05-23T11:45:33;147257.16;;;22.38;53.29
14689;BME280;7432;48.728;9.154;2023-05-23T11:48:07;147335.38;;;22.70;52.25
14689;BME280;7432;48.728;9.154;2023-05-23T11:50:34;147345.13;;;22.74;51.76
14689;BME280;7432;48.728;9.154;2023-05-23T11:53:08;147332.91;;;22.69;52.13
14689;BME280;7432;48.728;9.154;2023-05-23T11:55:34;147385.41;;;22.91;52.13
14689;BME280;7432;48.728;9.154;2023-05-23T11:58:01;147263.25;;;22.40;53.11
14689;BME280;7432;48.728;9.154;2023-05-23T12:00:28;147241.31;;;22.31;52.59
14689;BME280;7432;48.728;9.154;2023-05-23T12:02:55;147290.09;;;22.52;52.17
14689;BME280;7432;48.728;9.154;2023-05-23T12:05:22;147331.69;;;22.69;52.12
14689;BME280;7432;48.728;9.154;2023-05-23T12:07:48;147459.94;;;23.22;50.68
14689;BME280;7432;48.728;9.154;2023-05-23T12:10:15;147599.25;;;23.79;49.49
14689;BME280;7432;48.728;9.154;2023-05-23T12:12:43;147683.63;;;24.14;48.48
14689;BME280;7432;48.728;9.154;2023-05-23T12:15:10;147730.09;;;24.33;47.32
14689;BME280;7432;48.728;9.154;2023-05-23T12:17:38;147522.25;;;23.47;49.40
14689;BME280;7432;48.728;9.154;2023-05-23T12:20:10;147525.94;;;23.49;50.02
14689;BME280;7432;48.728;9.154;2023-05-23T12:22:37;147433.06;;;23.11;50.41
14689;BME280;7432;48.728;9.154;2023-05-23T12:25:07;147395.22;;;22.95;50.94
14689;BME280;7432;48.728;9.154;2023-05-23T12:27:34;147339.00;;;22.72;52.04
14689;BME280;7432;48.728;9.154;2023-05-23T12:30:06;147242.53;;;22.32;52.05
14689;BME280;7432;48.728;9.154;2023-05-23T12:32:33;147117.94;;;21.80;53.70
14689;BME280;7432;48.728;9.154;2023-05-23T12:35:03;147099.66;;;21.73;53.37
14689;BME280;7432;48.728;9.154;2023-05-23T12:37:29;147105.75;;;21.75;53.90
14689;BME280;7432;48.728;9.154;2023-05-23T12:39:55;147042.31;;;21.49;53.72
14689;BME280;7432;48.728;9.154;2023-05-23T12:42:22;147077.72;;;21.64;54.25
14689;BME280;7432;48.728;9.154;2023-05-23T12:44:50;147137.53;;;21.89;53.13
14689;BME280;7432;48.728;9.154;2023-05-23T12:47:17;147116.75;;;21.80;53.74
14689;BME280;7432;48.728;9.154;2023-05-23T12:49:43;147066.72;;;21.59;54.18
14689;BME280;7432;48.728;9.154;2023-05-23T12:52:12;146953.25;;;21.12;55.68
14689;BME280;7432;48.728;9.154;2023-05-23T12:54:38;147024.03;;;21.42;55.19
14689;BME280;7432;48.728;9.154;2023-05-23T12:57:05;147016.69;;;21.39;55.62
14689;BME280;7432;48.728;9.154;2023-05-23T12:59:31;146981.31;;;21.24;55.50
14689;BME280;7432;48.728;9.154;2023-05-23T13:01:57;147010.59;;;21.36;54.43